Time;durP1;ratioP1;P1;durP2;ratioP2;P2;SDS_P1;SDS_P2;PMS_P1;PMS_P2;Temp;Humidity;BMP_temperature;BMP_pressure;BME280_temperature;BME280_humidity;BME280_pressure;Samples;Min_cycle;Max_cycle;Signal;HPM_P1;HPM_P2
2022/05/15 00:01:21;;;;;;;10.17;4.70;;;;;;;6.02;nan;101387.88;4990298;28;20530;-82
2022/05/15 00:04:01;;;;;;;6.27;4.17;;;;;;;5.96;nan;101393.06;4974960;28;20049;-82
2022/05/15 00:06:28;;;;;;;6.17;3.93;;;;;;;5.96;nan;101387.81;4961912;28;20142;-82
2022/05/15 00:08:55;;;;;;;5.13;4.20;;;;;;;5.94;nan;101389.53;4975413;28;20053;-82
2022/05/15 00:11:25;;;;;;;4.93;3.60;;;;;;;5.90;nan;101395.59;4992172;28;20054;-82
2022/05/15 00:13:52;;;;;;;7.60;3.83;;;;;;;5.88;nan;101390.31;4973179;28;20050;-82
2022/05/15 00:16:19;;;;;;;5.10;4.23;;;;;;;5.83;nan;101396.41;4992632;28;20038;-81
2022/05/15 00:18:46;;;;;;;6.37;4.17;;;;;;;5.82;nan;101397.25;4957772;28;20043;-81
2022/05/15 00:21:17;;;;;;;8.73;4.13;;;;;;;5.80;nan;101397.25;4977002;28;20046;-81
2022/05/15 00:23:46;;;;;;;7.90;3.87;;;;;;;5.80;nan;101401.59;4959805;28;20491;-82
2022/05/15 00:26:16;;;;;;;5.60;3.57;;;;;;;5.69;nan;101390.13;4985850;28;20041;-82
2022/05/15 00:28:43;;;;;;;5.63;3.50;;;;;;;5.69;nan;101384.88;4971941;28;20040;-82
2022/05/15 00:31:10;;;;;;;11.10;4.60;;;;;;;5.76;nan;101392.81;4976280;28;20680;-82
2022/05/15 00:33:38;;;;;;;4.93;3.27;;;;;;;5.77;nan;101394.59;4975715;28;20487;-82
2022/05/15 00:36:05;;;;;;;6.70;3.77;;;;;;;5.74;nan;101391.94;4962445;28;20046;-81
2022/05/15 00:38:32;;;;;;;7.33;2.93;;;;;;;5.77;nan;101391.97;4974096;28;20078;-82
2022/05/15 00:41:01;;;;;;;5.17;3.00;;;;;;;5.61;nan;101390.03;4976055;28;20064;-82
2022/05/15 00:43:45;;;;;;;4.77;3.43;;;;;;;5.47;nan;101378.53;4990118;28;20042;-82
2022/05/15 00:46:21;;;;;;;5.63;2.80;;;;;;;5.44;nan;101389.81;4993057;28;20041;-82
2022/05/15 00:48:50;;;;;;;4.87;2.77;;;;;;;5.40;nan;101397.66;4958622;28;20045;-82
2022/05/15 00:51:25;;;;;;;6.17;3.43;;;;;;;5.42;nan;101396.81;4968231;28;20046;-82
2022/05/15 00:53:56;;;;;;;6.63;3.87;;;;;;;5.40;nan;101401.16;4990365;28;20043;-82
2022/05/15 00:56:27;;;;;;;6.93;3.53;;;;;;;5.44;nan;101402.06;4988834;28;20038;-82
2022/05/15 00:58:58;;;;;;;7.67;4.13;;;;;;;5.35;nan;101398.47;4971028;28;20049;-82
2022/05/15 01:01:25;;;;;;;5.53;2.83;;;;;;;5.36;nan;101394.09;4970886;28;20060;-82
2022/05/15 01:03:55;;;;;;;7.87;3.83;;;;;;;5.40;nan;101397.66;4940515;28;20399;-83
2022/05/15 01:06:22;;;;;;;5.13;3.30;;;;;;;5.35;nan;101401.06;4989989;28;20046;-82
2022/05/15 01:08:49;;;;;;;4.70;3.00;;;;;;;5.32;nan;101405.41;4968404;28;20038;-82
2022/05/15 01:11:18;;;;;;;4.50;2.80;;;;;;;5.30;nan;101409.75;4974030;28;20045;-83
2022/05/15 01:13:47;;;;;;;5.60;3.30;;;;;;;5.24;nan;101404.44;4957294;28;20052;-82
2022/05/15 01:16:20;;;;;;;3.60;3.07;;;;;;;5.20;nan;101410.47;4975046;28;20047;-82
2022/05/15 01:18:47;;;;;;;5.20;3.87;;;;;;;5.14;nan;101405.19;4987689;28;20030;-81
2022/05/15 01:21:22;;;;;;;6.77;2.93;;;;;;;5.08;nan;101409.47;4950768;28;20054;-81
2022/05/15 01:23:50;;;;;;;5.33;3.37;;;;;;;5.11;nan;101407.72;4968052;28;20050;-82
2022/05/15 01:26:25;;;;;;;4.97;3.10;;;;;;;5.11;nan;101411.22;4975204;28;20068;-82
2022/05/15 01:28:55;;;;;;;5.13;3.33;;;;;;;5.09;nan;101411.22;4963212;28;20134;-82
2022/05/15 01:31:22;;;;;;;8.03;4.57;;;;;;;4.98;nan;101404.97;4971877;28;20129;-82
2022/05/15 01:33:50;;;;;;;8.03;3.93;;;;;;;4.98;nan;101417.16;4959275;28;20415;-82
2022/05/15 01:36:21;;;;;;;6.27;3.80;;;;;;;4.88;nan;101415.28;4977032;28;20040;-82
2022/05/15 01:38:51;;;;;;;6.17;3.43;;;;;;;4.79;nan;101411.66;4969964;28;20038;-81
2022/05/15 01:41:19;;;;;;;6.10;3.37;;;;;;;4.77;nan;101422.94;4990853;28;20030;-81
2022/05/15 01:43:52;;;;;;;7.60;3.17;;;;;;;4.73;nan;101421.16;4987381;28;20038;-81
2022/05/15 01:46:21;;;;;;;4.10;3.07;;;;;;;4.69;nan;101414.97;4959764;28;20491;-82
2022/05/15 01:48:52;;;;;;;4.87;3.17;;;;;;;4.68;nan;101423.69;4959468;28;20518;-82
2022/05/15 01:51:21;;;;;;;4.73;3.03;;;;;;;4.66;nan;101422.78;4966406;28;20034;-83
2022/05/15 01:53:48;;;;;;;8.77;3.50;;;;;;;4.62;nan;101428.81;4957110;28;20139;-82
2022/05/15 01:56:15;;;;;;;5.20;3.53;;;;;;;4.59;nan;101434.00;4970023;28;20562;-82
2022/05/15 01:58:42;;;;;;;5.87;3.33;;;;;;;4.53;nan;101434.78;4971183;28;20042;-82
2022/05/15 02:01:12;;;;;;;5.50;3.10;;;;;;;4.52;nan;101433.03;4971406;28;20058;-82
2022/05/15 02:03:39;;;;;;;5.43;2.80;;;;;;;4.43;nan;101438.09;4968186;28;20038;-83
2022/05/15 02:06:08;;;;;;;11.07;3.60;;;;;;;4.37;nan;101430.19;4972563;28;20041;-82
2022/05/15 02:08:36;;;;;;;3.93;2.70;;;;;;;4.31;nan;101427.44;4965812;28;20504;-83
2022/05/15 02:11:04;;;;;;;5.27;3.13;;;;;;;4.34;nan;101431.84;4965547;28;20046;-82
2022/05/15 02:13:31;;;;;;;6.13;3.13;;;;;;;4.35;nan;101426.63;4972002;28;20108;-82
2022/05/15 02:16:02;;;;;;;8.17;3.20;;;;;;;4.39;nan;101428.47;4957074;28;20046;-81
2022/05/15 02:18:31;;;;;;;7.67;4.17;;;;;;;4.43;nan;101440.72;4955099;28;20402;-81
2022/05/15 02:21:01;;;;;;;6.47;3.53;;;;;;;4.34;nan;101435.34;4955030;28;20043;-81
2022/05/15 02:23:34;;;;;;;4.73;3.30;;;;;;;4.27;nan;101440.44;4954905;28;20054;-82
2022/05/15 02:26:01;;;;;;;4.97;3.20;;;;;;;4.12;nan;101430.56;4988541;28;20049;-82
2022/05/15 02:28:28;;;;;;;5.07;3.50;;;;;;;4.07;nan;101437.47;4954964;28;20519;-82
2022/05/15 02:30:55;;;;;;;5.23;3.37;;;;;;;4.02;nan;101441.72;4972920;28;20030;-82
2022/05/15 02:33:22;;;;;;;7.13;3.30;;;;;;;4.04;nan;101430.47;4970640;28;20046;-82
2022/05/15 02:35:54;;;;;;;5.93;3.73;;;;;;;4.00;nan;101441.69;4982736;28;20538;-82
2022/05/15 02:38:21;;;;;;;6.30;3.40;;;;;;;3.92;nan;101438.06;4985995;28;20056;-82
2022/05/15 02:40:48;;;;;;;5.20;3.20;;;;;;;3.79;nan;101444.81;4988590;28;20038;-82
2022/05/15 02:43:17;;;;;;;5.20;3.53;;;;;;;3.74;nan;101448.16;4969594;28;20046;-82
2022/05/15 02:45:47;;;;;;;6.43;3.93;;;;;;;3.71;nan;101437.66;4973885;28;20048;-82
2022/05/15 02:51:06;;;;;;;5.33;3.50;;;;;;;3.60;nan;101438.28;4990370;28;20040;-83
2022/05/15 02:53:38;;;;;;;4.40;3.30;;;;;;;3.62;nan;101435.75;4972789;28;20039;-83
2022/05/15 02:56:09;;;;;;;9.37;3.87;;;;;;;3.60;nan;101440.91;4969663;28;20056;-82
2022/05/15 02:58:36;;;;;;;7.37;3.50;;;;;;;3.64;nan;101447.09;4981467;28;20048;-83
2022/05/15 03:01:04;;;;;;;5.20;3.10;;;;;;;3.62;nan;101443.59;4992702;28;20046;-83
2022/05/15 03:03:31;;;;;;;5.07;3.10;;;;;;;3.60;nan;101445.25;4960285;28;20255;-83
2022/05/15 03:05:59;;;;;;;7.27;3.60;;;;;;;3.60;nan;101445.25;4993263;28;20038;-84
2022/05/15 03:08:26;;;;;;;7.83;3.33;;;;;;;3.56;nan;101451.28;4970167;23;20046;-80
2022/05/15 03:10:53;;;;;;;7.43;3.90;;;;;;;3.46;nan;101452.81;4976054;28;20118;-79
2022/05/15 03:13:20;;;;;;;7.97;2.97;;;;;;;3.38;nan;101442.22;4965209;28;20035;-81
2022/05/15 03:15:46;;;;;;;3.90;2.87;;;;;;;3.42;nan;101452.72;4955961;28;20490;-79
2022/05/15 03:18:13;;;;;;;6.77;3.30;;;;;;;3.44;nan;101451.88;4967474;28;20028;-82
2022/05/15 03:20:40;;;;;;;5.67;3.63;;;;;;;3.45;nan;101445.84;4964314;28;20054;-79
2022/05/15 03:23:07;;;;;;;5.73;3.47;;;;;;;3.47;nan;101449.38;4951883;28;20035;-80
2022/05/15 03:25:35;;;;;;;5.03;3.50;;;;;;;3.36;nan;101446.53;4917194;28;20042;-78
2022/05/15 03:28:04;;;;;;;7.63;3.63;;;;;;;3.33;nan;101451.66;4967153;28;20504;-82
2022/05/15 03:30:31;;;;;;;5.13;3.27;;;;;;;3.30;nan;101451.63;4926491;28;20049;-81
2022/05/15 03:32:58;;;;;;;5.63;2.90;;;;;;;3.35;nan;101449.09;4968159;28;20077;-78
2022/05/15 03:35:24;;;;;;;4.80;2.77;;;;;;;3.36;nan;101458.69;4954220;28;20046;-79
2022/05/15 03:37:51;;;;;;;4.37;3.33;;;;;;;3.37;nan;101455.25;4944268;28;20036;-79
2022/05/15 03:40:18;;;;;;;6.47;3.50;;;;;;;3.37;nan;101453.50;4954260;28;20047;-80
2022/05/15 03:42:45;;;;;;;6.07;3.23;;;;;;;3.42;nan;101455.31;4946408;28;20066;-81
2022/05/15 03:45:12;;;;;;;4.47;3.40;;;;;;;3.46;nan;101455.44;4956199;28;20035;-80
2022/05/15 03:47:47;;;;;;;5.50;3.07;;;;;;;3.49;nan;101457.22;4932319;29;20066;-79
2022/05/15 03:50:14;;;;;;;4.80;3.10;;;;;;;3.52;nan;101468.59;4938768;28;20058;-80
2022/05/15 03:52:42;;;;;;;5.03;3.33;;;;;;;3.48;nan;101464.19;4948812;28;20039;-80
2022/05/15 03:55:10;;;;;;;4.17;3.27;;;;;;;3.46;nan;101457.19;4956421;28;20400;-79
2022/05/15 03:57:37;;;;;;;3.83;2.73;;;;;;;3.47;nan;101462.44;4963796;28;20497;-79
2022/05/15 04:00:07;;;;;;;4.90;2.80;;;;;;;3.51;nan;101468.59;4943464;29;20040;-80
2022/05/15 04:02:34;;;;;;;4.33;3.00;;;;;;;3.47;nan;101469.38;4930267;29;20323;-80
2022/05/15 04:05:00;;;;;;;4.93;3.30;;;;;;;3.50;nan;101467.69;4975787;28;20039;-79
2022/05/15 04:07:27;;;;;;;6.97;3.53;;;;;;;3.53;nan;101472.09;4937556;28;20043;-79
2022/05/15 04:09:54;;;;;;;6.97;3.27;;;;;;;3.51;nan;101466.84;4967570;28;20047;-78
2022/05/15 04:12:21;;;;;;;4.13;2.80;;;;;;;3.53;nan;101474.72;4958017;28;20163;-78
2022/05/15 04:14:48;;;;;;;4.50;3.00;;;;;;;3.53;nan;101473.00;4950753;28;20049;-80
2022/05/15 04:17:15;;;;;;;4.77;3.30;;;;;;;3.55;nan;101468.69;4959335;28;20041;-79
2022/05/15 04:19:42;;;;;;;5.33;3.20;;;;;;;3.59;nan;101475.72;4968473;28;20062;-79
2022/05/15 04:22:12;;;;;;;6.57;3.17;;;;;;;3.76;nan;101483.91;4945996;28;20058;-78
2022/05/15 04:24:39;;;;;;;5.20;2.80;;;;;;;3.78;nan;101474.38;4948754;28;20039;-80
2022/05/15 04:27:06;;;;;;;4.80;3.00;;;;;;;3.87;nan;101477.19;4940213;29;20039;-79
2022/05/15 04:29:33;;;;;;;6.37;3.40;;;;;;;3.87;nan;101482.44;4957216;28;20041;-78
2022/05/15 04:31:59;;;;;;;4.37;2.97;;;;;;;3.88;nan;101483.31;4932783;29;20043;-80
2022/05/15 04:34:28;;;;;;;6.37;4.00;;;;;;;3.88;nan;101489.41;4967419;28;20050;-81
2022/05/15 04:36:55;;;;;;;6.03;3.50;;;;;;;3.91;nan;101492.06;4950234;28;20035;-81
2022/05/15 04:39:22;;;;;;;4.87;3.07;;;;;;;4.00;nan;101494.00;4951584;28;20053;-81
2022/05/15 04:41:49;;;;;;;3.90;2.97;;;;;;;4.07;nan;101492.38;4943857;28;20036;-80
2022/05/15 04:44:16;;;;;;;5.67;3.40;;;;;;;4.16;nan;101495.16;4950782;28;20045;-81
2022/05/15 04:46:43;;;;;;;6.83;3.47;;;;;;;4.20;nan;101499.59;4947391;28;20050;-79
2022/05/15 04:49:10;;;;;;;7.27;3.60;;;;;;;4.24;nan;101502.31;4936646;28;20045;-81
2022/05/15 04:51:37;;;;;;;6.40;3.60;;;;;;;4.35;nan;101512.09;4953037;28;20406;-80
2022/05/15 04:54:04;;;;;;;5.47;2.93;;;;;;;4.42;nan;101517.47;4951362;28;20031;-81
2022/05/15 04:56:30;;;;;;;5.33;3.10;;;;;;;4.58;nan;101515.13;4930741;28;20030;-79
2022/05/15 04:58:57;;;;;;;6.23;4.13;;;;;;;4.90;nan;101516.56;4967063;28;20481;-79
2022/05/15 05:01:25;;;;;;;6.23;3.67;;;;;;;5.00;nan;101517.56;4943980;28;20039;-81
2022/05/15 05:03:57;;;;;;;4.57;3.27;;;;;;;5.07;nan;101514.22;4951372;29;20039;-81
2022/05/15 05:06:26;;;;;;;5.90;3.53;;;;;;;5.04;nan;101527.22;4923695;29;20656;-80
2022/05/15 05:08:53;;;;;;;4.30;3.30;;;;;;;5.15;nan;101523.06;4947781;28;20027;-81
2022/05/15 05:11:20;;;;;;;4.40;3.60;;;;;;;5.20;nan;101526.63;4952879;28;20039;-80
2022/05/15 05:13:46;;;;;;;5.60;3.20;;;;;;;5.24;nan;101525.81;4958255;28;20038;-80
2022/05/15 05:16:14;;;;;;;5.33;3.40;;;;;;;5.24;nan;101528.44;4965296;28;20101;-81
2022/05/15 05:18:41;;;;;;;5.10;3.47;;;;;;;5.50;nan;101535.81;4962190;28;20039;-81
2022/05/15 05:21:08;;;;;;;7.07;3.87;;;;;;;5.88;nan;101531.94;4936586;28;20518;-80
2022/05/15 05:23:35;;;;;;;4.83;3.27;;;;;;;5.99;nan;101529.50;4930680;29;20035;-81
2022/05/15 05:26:03;;;;;;;4.57;3.53;;;;;;;6.08;nan;101533.97;4963683;28;20037;-80
2022/05/15 05:28:30;;;;;;;5.83;3.50;;;;;;;6.19;nan;101535.84;4923938;28;20059;-79
2022/05/15 05:30:58;;;;;;;5.03;3.27;;;;;;;6.34;nan;101536.88;4947269;28;20627;-78
2022/05/15 05:33:25;;;;;;;5.67;3.13;;;;;;;6.62;nan;101538.03;4933723;29;20046;-79
2022/05/15 05:35:53;;;;;;;10.10;3.93;;;;;;;6.82;nan;101543.50;4948532;28;20538;-80
2022/05/15 05:38:20;;;;;;;5.57;3.27;;;;;;;6.92;nan;101548.84;4934559;28;20031;-80
2022/05/15 05:40:47;;;;;;;7.77;4.27;;;;;;;7.34;nan;101537.78;4960479;28;20058;-81
2022/05/15 05:43:14;;;;;;;6.03;3.67;;;;;;;7.46;nan;101544.84;4946191;28;20054;-80
2022/05/15 05:45:41;;;;;;;7.03;3.60;;;;;;;7.63;nan;101553.72;4947251;28;20039;-80
2022/05/15 05:48:08;;;;;;;6.23;3.27;;;;;;;7.74;nan;101547.66;4941478;28;20032;-78
2022/05/15 05:50:36;;;;;;;9.40;3.73;;;;;;;7.93;nan;101552.13;4919790;29;20044;-80
2022/05/15 05:53:03;;;;;;;5.33;3.73;;;;;;;8.07;nan;101552.19;4955787;28;20035;-80
2022/05/15 05:55:30;;;;;;;7.27;3.40;;;;;;;9.04;nan;101562.09;4945685;28;20041;-79
2022/05/15 05:57:58;;;;;;;6.17;2.80;;;;;;;11.23;nan;101549.72;4943909;28;20400;-79
2022/05/15 06:00:28;;;;;;;6.45;2.50;;;;;;;12.59;nan;101545.50;4948740;28;20509;-78
2022/05/15 06:04:39;;;;;;;4.45;2.60;;;;;;;13.04;nan;101548.34;4939188;28;20043;-79
2022/05/15 06:05:43;;;;;;;5.85;2.28;;;;;;;14.25;nan;101548.75;4962231;28;20408;-80
2022/05/15 06:08:10;;;;;;;4.25;2.10;;;;;;;15.07;nan;101546.00;4945832;28;20040;-78
2022/05/15 06:10:37;;;;;;;5.05;1.95;;;;;;;15.12;nan;101549.38;4942698;28;20044;-79
2022/05/15 06:13:04;;;;;;;7.35;2.47;;;;;;;14.93;nan;101556.97;4963356;28;20655;-79
2022/05/15 06:15:31;;;;;;;6.18;2.22;;;;;;;14.81;nan;101554.59;4935189;28;20054;-79
2022/05/15 06:18:00;;;;;;;3.47;1.77;;;;;;;14.69;nan;101561.06;4960359;28;20530;-80
2022/05/15 06:20:27;;;;;;;5.57;2.70;;;;;;;14.69;nan;101557.53;4962698;28;21477;-81
2022/05/15 06:22:54;;;;;;;6.43;2.33;;;;;;;14.84;nan;101559.84;4948591;28;20042;-79
2022/05/15 06:25:21;;;;;;;5.68;2.35;;;;;;;14.69;nan;101560.19;4933687;28;20051;-80
2022/05/15 06:27:49;;;;;;;3.53;1.92;;;;;;;14.80;nan;101551.06;4936188;29;20622;-78
2022/05/15 06:30:16;;;;;;;3.00;1.70;;;;;;;15.14;nan;101552.91;4951440;29;20039;-78
2022/05/15 06:32:44;;;;;;;6.03;1.90;;;;;;;15.68;nan;101550.59;4949931;29;20046;-80
2022/05/15 06:35:13;;;;;;;3.05;1.70;;;;;;;15.71;nan;101550.50;4949967;28;20035;-79
2022/05/15 06:37:40;;;;;;;6.72;2.25;;;;;;;15.54;nan;101559.84;4944935;28;20043;-78
2022/05/15 06:40:09;;;;;;;2.50;1.50;;;;;;;15.68;nan;101544.41;4969924;28;20198;-78
2022/05/15 06:42:36;;;;;;;3.05;2.00;;;;;;;15.60;nan;101547.25;4957264;28;20043;-79
2022/05/15 06:45:05;;;;;;;3.47;1.98;;;;;;;15.77;nan;101555.69;4933222;29;20042;-79
2022/05/15 06:47:34;;;;;;;3.70;2.05;;;;;;;16.46;nan;101545.66;4943370;28;20586;-77
2022/05/15 06:50:02;;;;;;;4.20;2.00;;;;;;;16.67;nan;101551.28;4953408;29;20035;-79
2022/05/15 06:52:29;;;;;;;3.20;1.95;;;;;;;16.71;nan;101553.81;4943739;28;20542;-79
2022/05/15 06:54:56;;;;;;;3.38;1.50;;;;;;;16.93;nan;101558.47;4954129;28;20047;-79
2022/05/15 06:57:29;;;;;;;2.28;1.38;;;;;;;16.83;nan;101553.44;4950836;28;20046;-79
2022/05/15 07:00:03;;;;;;;3.58;1.52;;;;;;;16.74;nan;101559.06;4966734;28;20506;-79
2022/05/15 07:02:31;;;;;;;2.53;1.48;;;;;;;16.83;nan;101557.91;4948279;28;20467;-78
2022/05/15 07:04:58;;;;;;;4.35;1.58;;;;;;;16.42;nan;101553.81;4952932;28;20046;-79
2022/05/15 07:07:25;;;;;;;4.25;1.50;;;;;;;17.20;nan;101552.22;4965700;28;20046;-78
2022/05/15 07:09:52;;;;;;;3.17;1.60;;;;;;;17.17;nan;101565.69;4952100;28;20480;-79
2022/05/15 07:12:19;;;;;;;4.45;1.55;;;;;;;17.09;nan;101570.41;4952417;28;20073;-79
2022/05/15 07:14:46;;;;;;;2.10;1.30;;;;;;;16.66;nan;101557.53;4962807;28;20049;-78
2022/05/15 07:17:13;;;;;;;3.58;1.30;;;;;;;16.52;nan;101561.50;4945389;28;20041;-77
2022/05/15 07:19:40;;;;;;;4.07;1.60;;;;;;;16.70;nan;101560.06;4953965;28;20531;-78
2022/05/15 07:22:09;;;;;;;3.63;1.42;;;;;;;16.85;nan;101562.25;4953230;28;20031;-78
2022/05/15 07:24:38;;;;;;;1.85;1.20;;;;;;;17.08;nan;101555.31;4944358;28;20039;-78
2022/05/15 07:27:06;;;;;;;2.53;1.50;;;;;;;17.31;nan;101558.03;4950675;28;20508;-79
2022/05/15 07:29:36;;;;;;;7.38;1.77;;;;;;;17.56;nan;101549.19;4961651;28;20053;-79
2022/05/15 07:32:05;;;;;;;7.07;2.08;;;;;;;17.43;nan;101551.44;4960614;29;20130;-80
2022/05/15 07:34:32;;;;;;;3.33;1.80;;;;;;;17.43;nan;101549.63;4967704;28;20118;-80
2022/05/15 07:36:59;;;;;;;2.45;1.60;;;;;;;17.47;nan;101549.50;4972296;28;20039;-79
2022/05/15 07:39:26;;;;;;;2.95;1.55;;;;;;;17.74;nan;101548.59;4950764;28;20044;-79
2022/05/15 07:41:53;;;;;;;3.55;1.40;;;;;;;17.83;nan;101550.06;4973734;28;20501;-81
2022/05/15 07:44:20;;;;;;;67.20;10.65;;;;;;;18.26;nan;101550.19;4954710;28;20047;-79
2022/05/15 07:46:47;;;;;;;3.05;1.70;;;;;;;18.70;nan;101549.41;4965157;28;20038;-80
2022/05/15 07:49:15;;;;;;;48.13;7.53;;;;;;;18.75;nan;101556.34;4952375;28;20049;-79
2022/05/15 07:51:44;;;;;;;2.90;1.60;;;;;;;18.39;nan;101558.59;4960086;28;20039;-80
2022/05/15 07:54:14;;;;;;;2.83;1.40;;;;;;;18.35;nan;101559.66;4968155;28;20047;-79
2022/05/15 07:56:41;;;;;;;5.15;1.60;;;;;;;18.26;nan;101562.69;4955716;28;20035;-79
2022/05/15 07:59:08;;;;;;;3.53;1.75;;;;;;;18.25;nan;101559.16;4953834;28;20070;-80
2022/05/15 08:01:35;;;;;;;2.50;1.45;;;;;;;17.83;nan;101563.44;4947543;29;20043;-79
2022/05/15 08:04:02;;;;;;;2.22;1.40;;;;;;;17.97;nan;101563.78;4959930;28;20079;-81
2022/05/15 08:09:15;;;;;;;3.33;1.73;;;;;;;18.65;nan;101568.31;4954312;28;20038;-81
2022/05/15 08:11:42;;;;;;;3.88;1.92;;;;;;;18.71;nan;101561.88;4924644;29;20102;-78
2022/05/15 08:14:10;;;;;;;6.97;1.67;;;;;;;19.13;nan;101560.09;4937274;29;20035;-79
2022/05/15 08:16:38;;;;;;;2.67;1.30;;;;;;;19.41;nan;101558.94;4941760;29;20043;-80
2022/05/15 08:24:39;;;;;;;3.47;1.50;;;;;;;19.10;nan;101554.88;4935685;28;20501;-80
2022/05/15 08:27:06;;;;;;;3.08;1.70;;;;;;;19.26;nan;101549.75;4938613;29;20035;-79
2022/05/15 08:29:33;;;;;;;2.20;1.83;;;;;;;19.30;nan;101556.72;4953052;28;20035;-78
2022/05/15 08:32:00;;;;;;;2.20;1.55;;;;;;;19.36;nan;101552.91;4959279;28;20485;-80
2022/05/15 08:34:27;;;;;;;3.97;1.60;;;;;;;19.48;nan;101547.00;4938102;29;20051;-79
2022/05/15 08:36:55;;;;;;;3.92;1.73;;;;;;;19.55;nan;101559.22;4944950;29;20331;-78
2022/05/15 08:39:22;;;;;;;2.25;1.30;;;;;;;19.84;nan;101547.25;4934010;28;20031;-80
2022/05/15 08:41:55;;;;;;;2.88;1.30;;;;;;;20.31;nan;101540.63;4932558;29;20036;-80
2022/05/15 08:44:30;;;;;;;2.28;1.60;;;;;;;20.19;nan;101551.00;4944283;28;20043;-78
2022/05/15 08:47:04;;;;;;;109.28;12.68;;;;;;;19.99;nan;101552.84;4950218;28;20035;-78
2022/05/15 08:49:36;;;;;;;2.38;1.42;;;;;;;19.79;nan;101554.63;4951775;28;20040;-80
2022/05/15 08:52:13;;;;;;;2.75;1.50;;;;;;;19.51;nan;101554.94;4940851;29;20115;-77
2022/05/15 08:55:09;;;;;;;2.92;1.60;;;;;;;20.16;nan;101544.91;4949852;28;20424;-78
2022/05/15 08:57:55;;;;;;;2.70;1.48;;;;;;;20.65;nan;101546.16;4934670;28;20043;-80
2022/05/15 09:00:31;;;;;;;2.50;1.50;;;;;;;20.86;nan;101543.41;4955574;28;20035;-80
2022/05/15 09:03:21;;;;;;;2.47;1.45;;;;;;;20.59;nan;101546.44;4937673;29;20125;-82
2022/05/15 09:05:59;;;;;;;2.08;1.20;;;;;;;20.43;nan;101545.41;4930655;29;20061;-79
2022/05/15 09:09:03;;;;;;;3.28;1.20;;;;;;;20.71;nan;101539.63;4945160;28;20049;-80
2022/05/15 09:11:33;;;;;;;;;;;;;;;21.18;nan;101533.69;4952025;28;20035;-78
2022/05/15 09:14:07;;;;;;;3.20;1.40;;;;;;;21.17;nan;101537.34;4918127;29;19929;-79
2022/05/15 09:16:35;;;;;;;2.55;1.10;;;;;;;21.15;nan;101537.41;4950738;28;20127;-79
2022/05/15 09:19:06;;;;;;;3.65;1.58;;;;;;;21.24;nan;101538.75;4934667;29;20122;-79
2022/05/15 09:21:33;;;;;;;1.65;1.10;;;;;;;21.28;nan;101543.97;4934396;28;20049;-79
2022/05/15 09:24:09;;;;;;;2.40;1.50;;;;;;;21.46;nan;101539.44;4934518;29;20093;-80
2022/05/15 09:26:45;;;;;;;4.35;1.60;;;;;;;21.49;nan;101547.34;4926890;29;20049;-80
2022/05/15 09:29:17;;;;;;;3.30;1.40;;;;;;;21.39;nan;101538.03;4945730;28;20041;-79
2022/05/15 09:31:45;;;;;;;3.80;1.40;;;;;;;21.43;nan;101541.41;4931105;29;20504;-79
2022/05/15 09:34:24;;;;;;;4.10;1.52;;;;;;;21.22;nan;101541.53;4929677;28;20035;-79
2022/05/15 09:36:52;;;;;;;2.83;1.45;;;;;;;20.65;nan;101542.59;4942474;29;20068;-79
2022/05/15 09:39:26;;;;;;;2.58;1.42;;;;;;;20.77;nan;101550.09;4932177;28;20031;-78
2022/05/15 09:44:46;;;;;;;2.45;1.33;;;;;;;21.08;nan;101538.66;4925454;28;20504;-80
2022/05/15 09:47:31;;;;;;;2.63;1.48;;;;;;;21.08;nan;101539.53;4931880;28;20039;-80
2022/05/15 09:49:58;;;;;;;2.63;1.20;;;;;;;21.19;nan;101539.03;4945902;28;20049;-79
2022/05/15 09:52:39;;;;;;;1.90;1.40;;;;;;;20.61;nan;101530.28;4946177;28;20039;-79
2022/05/15 09:55:23;;;;;;;1.80;1.30;;;;;;;20.74;nan;101526.03;4946340;28;20042;-80
2022/05/15 09:57:59;;;;;;;2.78;1.23;;;;;;;21.35;nan;101522.97;4929996;29;20047;-79
2022/05/15 10:00:29;;;;;;;1.80;1.20;;;;;;;21.79;nan;101520.66;4950085;28;20053;-80
2022/05/15 10:03:03;;;;;;;1.98;1.60;;;;;;;22.21;nan;101524.69;4930480;28;21022;-78
2022/05/15 10:05:33;;;;;;;3.35;1.40;;;;;;;21.86;nan;101527.47;4930229;29;20050;-78
2022/05/15 10:08:01;;;;;;;2.17;1.33;;;;;;;21.44;nan;101521.63;4931882;28;20047;-79
2022/05/15 10:10:32;;;;;;;2.55;1.33;;;;;;;21.35;nan;101510.41;4949361;28;20039;-79
2022/05/15 10:13:23;;;;;;;3.35;1.70;;;;;;;21.45;nan;101505.44;4934031;28;20035;-81
2022/05/15 10:15:51;;;;;;;1.88;1.30;;;;;;;21.46;nan;101507.19;4920147;29;20546;-78
2022/05/15 10:18:23;;;;;;;2.63;1.88;;;;;;;21.66;nan;101506.13;4933587;29;20035;-79
2022/05/15 10:20:51;;;;;;;5.80;1.98;;;;;;;21.88;nan;101508.53;4937727;28;20641;-78
2022/05/15 10:23:23;;;;;;;2.08;1.15;;;;;;;21.85;nan;101496.09;4950898;28;20044;-79
2022/05/15 10:26:08;;;;;;;2.75;1.50;;;;;;;22.21;nan;101496.91;4941938;28;20049;-79
2022/05/15 10:28:51;;;;;;;1.60;1.23;;;;;;;21.76;nan;101493.03;4925496;29;20111;-79
2022/05/15 10:31:58;;;;;;;3.73;1.47;;;;;;;21.84;nan;101488.13;4934841;28;20039;-78
2022/05/15 10:34:29;;;;;;;2.95;1.65;;;;;;;21.77;nan;101495.66;4906039;29;20048;-79
2022/05/15 10:37:36;;;;;;;2.10;1.20;;;;;;;22.23;nan;101498.56;4919808;29;20146;-80
2022/05/15 10:40:28;;;;;;;2.00;1.30;;;;;;;22.12;nan;101493.78;4945665;28;20038;-79
2022/05/15 10:43:05;;;;;;;3.22;1.60;;;;;;;21.75;nan;101497.56;4947402;28;20046;-78
2022/05/15 10:45:36;;;;;;;2.08;1.50;;;;;;;;;;4949645;28;20041;-79
2022/05/15 10:48:13;;;;;;;4.43;1.50;;;;;;;22.06;nan;101493.22;4932893;29;20039;-79
2022/05/15 10:50:57;;;;;;;3.53;1.83;;;;;;;22.04;nan;101476.28;4944008;29;20035;-78
2022/05/15 10:59:47;;;;;;;2.38;1.52;;;;;;;22.45;nan;101482.06;4942874;28;20031;-78
2022/05/15 11:02:51;;;;;;;2.20;1.30;;;;;;;22.60;nan;101477.59;4927327;28;20040;-79
2022/05/15 11:05:18;;;;;;;;;;;;;;;22.40;nan;101476.94;4947809;28;20035;-77
2022/05/15 11:08:16;;;;;;;3.25;1.40;;;;;;;22.71;nan;101473.34;5024551;23;19937;-81
2022/05/15 11:10:56;;;;;;;2.97;1.30;;;;;;;22.61;nan;101477.50;4979235;28;20038;-81
2022/05/15 11:13:48;;;;;;;3.38;1.70;;;;;;;22.64;nan;101465.72;4988607;28;21682;-82
2022/05/15 11:16:22;;;;;;;2.97;1.48;;;;;;;22.93;nan;101475.66;4972696;28;20026;-82
2022/05/15 11:19:11;;;;;;;2.45;1.35;;;;;;;23.29;nan;101463.66;4955500;28;20039;-82
2022/05/15 11:22:00;;;;;;;2.88;1.30;;;;;;;23.26;nan;101463.81;4983657;28;20499;-83
2022/05/15 11:24:55;;;;;;;2.70;1.50;;;;;;;23.18;nan;101469.69;4991095;28;20050;-81
2022/05/15 11:27:48;;;;;;;2.95;1.50;;;;;;;22.82;nan;101470.03;4992452;28;20077;-81
2022/05/15 11:30:33;;;;;;;2.53;1.40;;;;;;;22.54;nan;101461.81;4993958;28;20041;-82
2022/05/15 11:33:08;;;;;;;2.88;1.73;;;;;;;22.35;nan;101459.28;4970767;28;20053;-87
2022/05/15 11:35:40;;;;;;;4.30;1.70;;;;;;;22.63;nan;101459.47;4958567;28;20487;-83
2022/05/15 11:38:27;;;;;;;3.45;1.58;;;;;;;22.92;nan;101456.91;4964014;28;20121;-83
2022/05/15 11:40:55;;;;;;;3.83;1.65;;;;;;;22.81;nan;101456.66;4963610;28;20038;-83
2022/05/15 11:43:31;;;;;;;3.03;1.42;;;;;;;22.24;nan;101456.34;4975848;28;20640;-83
2022/05/15 11:46:00;;;;;;;2.33;1.55;;;;;;;22.65;nan;101451.28;4980434;28;20046;-83
2022/05/15 11:48:42;;;;;;;2.83;1.70;;;;;;;22.87;nan;101454.50;4960553;28;20050;-83
2022/05/15 11:51:12;;;;;;;4.63;2.05;;;;;;;22.40;nan;101458.09;4990715;28;20042;-83
2022/05/15 11:53:57;;;;;;;2.33;1.40;;;;;;;22.20;nan;101455.66;4993961;28;20398;-86
2022/05/15 11:56:28;;;;;;;2.67;1.40;;;;;;;22.59;nan;101436.34;4994546;28;20041;-85
2022/05/15 11:58:57;;;;;;;3.35;1.70;;;;;;;21.78;nan;101438.22;4976993;28;20034;-86
2022/05/15 12:01:24;;;;;;;2.70;1.40;;;;;;;22.23;nan;101441.16;4986369;28;20113;-84
2022/05/15 12:03:56;;;;;;;2.85;1.45;;;;;;;22.54;nan;101441.16;4992668;28;20180;-86
2022/05/15 12:06:29;;;;;;;2.53;1.73;;;;;;;23.10;nan;101422.59;4970091;28;20044;-86
2022/05/15 12:09:15;;;;;;;2.93;1.73;;;;;;;22.57;nan;101440.97;4976247;28;20406;-85
2022/05/15 12:11:44;;;;;;;2.63;1.40;;;;;;;22.64;nan;101433.41;4970299;28;20145;-85
2022/05/15 12:14:26;;;;;;;3.13;1.80;;;;;;;22.62;nan;101438.88;4976237;28;20503;-84
2022/05/15 12:17:19;;;;;;;3.53;1.77;;;;;;;22.76;nan;101428.13;4977926;28;20125;-82
2022/05/15 12:19:48;;;;;;;2.13;1.40;;;;;;;22.60;nan;101423.75;4970387;28;20500;-83
2022/05/15 12:22:16;;;;;;;2.65;1.30;;;;;;;22.80;nan;101428.84;4991741;28;20046;-83
2022/05/15 12:24:48;;;;;;;2.15;1.40;;;;;;;22.58;nan;101417.59;4947428;28;20122;-84